Time;durP1;ratioP1;P1;durP2;ratioP2;P2;SDS_P1;SDS_P2;PMS_P1;PMS_P2;Temp;Humidity;BMP_temperature;BMP_pressure;BME280_temperature;BME280_humidity;BME280_pressure;Samples;Min_cycle;Max_cycle;Signal;HPM_P1;HPM_P2
2021/08/09 00:00:40;;;;;;;1.67;1.00;;;16.80;91.10;;;;;;5051508;28;20033;-74
2021/08/09 00:03:07;;;;;;;2.30;0.90;;;16.80;91.00;;;;;;5051698;28;20115;-74
2021/08/09 00:05:34;;;;;;;4.05;1.17;;;16.80;91.00;;;;;;5051493;28;20025;-73
2021/08/09 00:08:00;;;;;;;2.95;1.00;;;16.90;91.10;;;;;;5049911;28;20036;-74
2021/08/09 00:10:27;;;;;;;3.13;1.10;;;16.90;91.10;;;;;;5051307;28;20033;-73
2021/08/09 00:12:56;;;;;;;2.95;1.08;;;16.90;91.00;;;;;;5051100;28;20040;-75
2021/08/09 00:15:22;;;;;;;2.25;1.00;;;16.90;91.00;;;;;;5051064;28;20415;-74
2021/08/09 00:17:48;;;;;;;5.15;1.00;;;16.90;91.00;;;;;;5051435;28;20029;-74
2021/08/09 00:20:14;;;;;;;2.05;1.17;;;16.90;91.00;;;;;;5051229;28;20122;-73
2021/08/09 00:22:40;;;;;;;3.50;1.40;;;17.00;91.00;;;;;;5050807;28;20457;-75
2021/08/09 00:25:07;;;;;;;2.70;0.98;;;17.00;90.90;;;;;;5049831;28;20044;-74
2021/08/09 00:27:33;;;;;;;5.10;1.10;;;17.00;91.00;;;;;;5050783;28;20028;-74
2021/08/09 00:29:58;;;;;;;3.53;1.38;;;17.00;91.00;;;;;;5051363;28;20031;-74
2021/08/09 00:32:24;;;;;;;2.33;1.48;;;17.00;91.00;;;;;;5050822;28;20021;-75
2021/08/09 00:34:50;;;;;;;3.17;1.20;;;17.00;91.00;;;;;;5050816;28;20066;-73
2021/08/09 00:37:15;;;;;;;3.20;1.65;;;17.00;91.00;;;;;;5051298;28;20043;-74
2021/08/09 00:39:41;;;;;;;2.25;1.00;;;17.00;91.00;;;;;;5050993;28;20043;-75
2021/08/09 00:42:07;;;;;;;3.55;1.00;;;17.00;91.30;;;;;;5051114;28;20048;-74
2021/08/09 00:44:34;;;;;;;5.00;1.25;;;17.00;91.10;;;;;;5051093;28;20076;-74
2021/08/09 00:47:00;;;;;;;4.18;1.25;;;17.00;91.00;;;;;;5050480;28;20039;-74
2021/08/09 00:49:26;;;;;;;5.85;1.25;;;17.00;91.10;;;;;;5049032;28;20120;-74
2021/08/09 00:51:52;;;;;;;4.13;1.40;;;17.00;91.20;;;;;;5050672;28;20044;-75
2021/08/09 00:54:19;;;;;;;1.42;0.90;;;16.90;91.10;;;;;;5049527;28;20362;-75
2021/08/09 00:56:45;;;;;;;5.43;1.40;;;17.00;91.20;;;;;;5051151;28;20063;-75
2021/08/09 00:59:11;;;;;;;4.68;1.17;;;17.00;91.20;;;;;;5049729;28;20443;-74
2021/08/09 01:01:36;;;;;;;2.88;1.48;;;17.00;91.20;;;;;;5050398;28;20533;-74
2021/08/09 01:04:03;;;;;;;2.72;0.93;;;17.00;91.30;;;;;;5050692;28;20033;-74
2021/08/09 01:06:29;;;;;;;5.80;1.23;;;16.90;91.20;;;;;;5050458;28;20557;-76
2021/08/09 01:09:21;;;;;;;3.17;1.20;;;17.00;91.60;;;;;;5050953;28;20053;-74
2021/08/09 01:11:55;;;;;;;4.05;1.02;;;17.00;91.20;;;;;;5046372;28;20052;-75
2021/08/09 01:14:32;;;;;;;3.13;0.98;;;17.00;91.20;;;;;;5050548;28;20751;-74
2021/08/09 01:17:00;;;;;;;4.57;1.27;;;17.00;91.30;;;;;;5050351;28;20455;-75
2021/08/09 01:19:32;;;;;;;9.32;1.63;;;16.90;91.30;;;;;;5050531;28;20759;-74
2021/08/09 01:22:06;;;;;;;5.55;1.05;;;17.00;91.30;;;;;;5050279;28;20526;-74
2021/08/09 01:25:05;;;;;;;4.78;1.60;;;17.00;91.30;;;;;;5050499;28;20437;-75
2021/08/09 01:27:32;;;;;;;2.92;1.13;;;16.90;91.30;;;;;;5049479;28;20052;-73
2021/08/09 01:30:03;;;;;;;4.30;1.15;;;17.00;91.40;;;;;;5050987;28;20025;-73
2021/08/09 01:32:31;;;;;;;2.95;1.20;;;17.00;91.40;;;;;;5050275;28;20043;-75
2021/08/09 01:34:57;;;;;;;;;;;17.00;91.40;;;;;;5049304;28;20060;-74
2021/08/09 01:37:25;;;;;;;2.40;1.02;;;17.00;91.50;;;;;;5030441;28;19909;-76
2021/08/09 01:39:51;;;;;;;;;;;17.00;91.40;;;;;;5030667;28;20029;-75
2021/08/09 01:42:18;;;;;;;2.10;0.93;;;16.90;91.40;;;;;;5029156;28;19915;-75
2021/08/09 01:44:44;;;;;;;3.55;1.38;;;16.90;91.50;;;;;;5030775;28;20024;-74
2021/08/09 01:47:10;;;;;;;8.10;1.65;;;16.90;91.60;;;;;;5030563;28;20033;-74
2021/08/09 01:49:36;;;;;;;1.88;1.10;;;16.90;91.60;;;;;;5030152;28;20061;-74
2021/08/09 01:52:03;;;;;;;5.53;1.23;;;16.90;91.60;;;;;;5030311;28;20053;-74
2021/08/09 01:54:28;;;;;;;7.28;1.50;;;16.90;91.70;;;;;;5029173;28;20036;-74
2021/08/09 01:56:54;;;;;;;2.65;1.40;;;16.90;91.70;;;;;;5030914;28;20120;-75
2021/08/09 01:59:21;;;;;;;3.35;1.00;;;16.90;92.00;;;;;;5030084;28;20057;-74
2021/08/09 02:01:47;;;;;;;9.30;1.20;;;16.90;91.90;;;;;;5030722;28;20451;-75
2021/08/09 02:04:12;;;;;;;2.80;1.30;;;16.90;92.00;;;;;;5033680;28;20120;-74
2021/08/09 02:06:38;;;;;;;3.75;1.50;;;16.80;91.90;;;;;;5032575;28;20041;-74
2021/08/09 02:09:07;;;;;;;3.45;1.35;;;16.80;92.10;;;;;;5034185;28;20040;-73
2021/08/09 02:12:06;;;;;;;3.35;1.42;;;16.70;92.00;;;;;;5033525;28;20025;-74
2021/08/09 02:14:35;;;;;;;6.13;1.40;;;16.70;92.10;;;;;;5034494;28;20033;-74
2021/08/09 02:17:17;;;;;;;5.68;1.00;;;16.70;92.20;;;;;;5032282;28;20033;-75
2021/08/09 02:20:02;;;;;;;5.43;1.33;;;16.70;92.10;;;;;;5033537;28;20032;-74
2021/08/09 02:22:39;;;;;;;3.63;1.52;;;16.70;92.20;;;;;;5033234;28;20054;-74
2021/08/09 02:25:16;;;;;;;5.78;1.48;;;16.80;92.20;;;;;;5033505;28;20029;-73
2021/08/09 02:27:49;;;;;;;4.28;1.83;;;16.70;92.10;;;;;;5033215;28;20431;-75
2021/08/09 02:30:18;;;;;;;5.88;1.25;;;16.70;92.20;;;;;;5033378;28;20033;-73
2021/08/09 02:32:46;;;;;;;4.88;1.73;;;16.70;92.30;;;;;;5033768;28;20413;-74
2021/08/09 02:35:15;;;;;;;4.10;1.40;;;16.70;92.60;;;;;;5033213;28;20040;-74
2021/08/09 02:37:42;;;;;;;6.35;1.60;;;16.60;92.30;;;;;;5033109;28;20034;-75
2021/08/09 02:40:08;;;;;;;4.80;1.40;;;16.60;92.30;;;;;;5032934;28;20043;-73
2021/08/09 02:42:34;;;;;;;3.35;1.02;;;16.70;92.20;;;;;;5033011;28;20041;-74
2021/08/09 02:45:00;;;;;;;3.33;1.10;;;16.70;92.00;;;;;;5033431;28;20056;-74
2021/08/09 02:47:27;;;;;;;2.88;1.17;;;16.70;92.20;;;;;;5032901;28;20474;-74
2021/08/09 02:49:54;;;;;;;1.90;1.25;;;16.60;92.20;;;;;;5033039;28;20037;-74
2021/08/09 02:52:21;;;;;;;3.13;1.40;;;16.60;92.40;;;;;;5032943;28;20049;-74
2021/08/09 02:54:48;;;;;;;2.03;1.30;;;16.60;92.40;;;;;;5031573;28;20042;-74
2021/08/09 02:57:17;;;;;;;3.03;1.60;;;16.60;92.40;;;;;;5032912;28;20029;-74
2021/08/09 02:59:43;;;;;;;2.72;1.33;;;16.50;92.40;;;;;;5033831;28;20320;-74
2021/08/09 03:02:11;;;;;;;5.00;1.80;;;16.50;92.60;;;;;;5031488;28;20640;-73
2021/08/09 03:04:39;;;;;;;8.07;1.58;;;16.50;92.70;;;;;;5032341;28;20151;-74
2021/08/09 03:07:06;;;;;;;3.95;1.55;;;16.50;92.70;;;;;;5032617;28;20025;-75
2021/08/09 03:09:35;;;;;;;2.80;1.20;;;16.50;92.60;;;;;;5032396;28;20325;-74
2021/08/09 03:12:02;;;;;;;5.75;1.25;;;16.50;92.70;;;;;;5032801;28;20455;-74
2021/08/09 03:14:31;;;;;;;3.00;1.38;;;16.50;92.70;;;;;;5032069;28;20048;-75
2021/08/09 03:17:01;;;;;;;3.25;1.20;;;16.50;92.70;;;;;;5031209;28;20114;-75
2021/08/09 03:19:27;;;;;;;3.45;1.40;;;16.50;92.70;;;;;;5032301;28;20029;-75
2021/08/09 03:21:57;;;;;;;8.65;1.60;;;16.50;92.60;;;;;;5032024;28;20029;-75
2021/08/09 03:24:24;;;;;;;1.95;1.10;;;16.50;92.60;;;;;;5032242;28;20029;-74
2021/08/09 03:26:50;;;;;;;4.80;1.45;;;16.50;92.50;;;;;;5032654;28;20030;-74
2021/08/09 03:29:16;;;;;;;3.65;1.17;;;16.40;93.00;;;;;;5032027;28;20120;-74
2021/08/09 03:31:42;;;;;;;8.10;1.63;;;16.40;92.60;;;;;;5032014;28;20159;-75
2021/08/09 03:34:08;;;;;;;6.60;1.73;;;16.40;92.60;;;;;;5031565;28;20619;-76
2021/08/09 03:36:34;;;;;;;3.40;1.20;;;16.40;92.80;;;;;;5031831;28;20082;-73
2021/08/09 03:38:59;;;;;;;6.57;1.50;;;16.40;92.80;;;;;;5032283;28;20025;-74
2021/08/09 03:41:25;;;;;;;3.03;1.35;;;16.30;92.90;;;;;;5032127;28;20112;-74
2021/08/09 03:43:51;;;;;;;5.07;1.52;;;16.40;93.10;;;;;;5032121;28;20371;-75
2021/08/09 03:46:16;;;;;;;3.78;1.75;;;16.30;93.10;;;;;;5031713;28;20030;-74
2021/08/09 03:48:42;;;;;;;4.68;1.60;;;16.30;93.10;;;;;;5030865;28;20033;-75
2021/08/09 03:51:08;;;;;;;6.32;1.35;;;16.30;93.30;;;;;;5032143;28;20084;-75
2021/08/09 03:53:33;;;;;;;3.90;1.40;;;16.30;93.20;;;;;;5031509;28;20045;-74
2021/08/09 03:55:59;;;;;;;4.18;1.70;;;16.30;93.40;;;;;;5031635;28;20124;-74
2021/08/09 03:58:25;;;;;;;5.78;1.63;;;16.30;93.50;;;;;;5031860;28;20038;-74
2021/08/09 04:00:50;;;;;;;4.88;1.58;;;16.30;93.50;;;;;;5031618;28;20451;-74
2021/08/09 04:03:16;;;;;;;3.42;1.33;;;16.30;93.50;;;;;;5031488;28;20030;-74
2021/08/09 04:05:42;;;;;;;4.63;1.50;;;16.30;93.60;;;;;;5031886;28;20029;-74
2021/08/09 04:08:07;;;;;;;6.05;1.70;;;16.30;93.50;;;;;;5031470;28;20091;-75
2021/08/09 04:10:33;;;;;;;3.55;1.73;;;16.40;93.40;;;;;;5031222;28;20033;-73
2021/08/09 04:12:58;;;;;;;3.50;1.60;;;16.50;93.50;;;;;;5031252;28;20030;-75
2021/08/09 04:15:24;;;;;;;7.75;1.75;;;16.50;93.50;;;;;;5031054;28;20439;-74
2021/08/09 04:17:49;;;;;;;5.03;1.42;;;16.50;93.70;;;;;;5031832;28;20021;-76
2021/08/09 04:20:15;;;;;;;6.50;1.40;;;16.50;93.60;;;;;;5031453;28;20030;-75
2021/08/09 04:22:41;;;;;;;5.15;1.60;;;16.50;93.70;;;;;;5031064;28;20144;-75
2021/08/09 04:25:07;;;;;;;4.38;1.30;;;16.60;93.70;;;;;;5029596;28;20030;-74
2021/08/09 04:27:33;;;;;;;2.83;1.40;;;16.60;93.70;;;;;;5031274;28;20021;-73
2021/08/09 04:29:59;;;;;;;2.10;1.38;;;16.60;93.60;;;;;;5031445;28;20105;-74
2021/08/09 04:32:25;;;;;;;4.25;1.38;;;16.60;93.70;;;;;;5031069;28;20109;-74
2021/08/09 04:34:51;;;;;;;4.55;1.50;;;16.60;93.90;;;;;;5031119;28;20498;-73
2021/08/09 04:37:19;;;;;;;6.70;1.42;;;16.60;93.90;;;;;;5031302;28;20511;-74
2021/08/09 04:39:45;;;;;;;3.67;1.45;;;16.60;94.00;;;;;;5030744;28;20025;-75
2021/08/09 04:42:11;;;;;;;3.60;1.27;;;16.60;94.10;;;;;;5031429;28;20488;-75
2021/08/09 04:44:37;;;;;;;4.65;1.67;;;16.70;94.00;;;;;;5030785;28;20042;-74
2021/08/09 04:47:02;;;;;;;6.82;1.67;;;16.60;94.10;;;;;;5029809;28;20101;-74
2021/08/09 04:49:28;;;;;;;4.45;1.50;;;16.60;94.00;;;;;;5031143;28;20337;-75
2021/08/09 04:51:53;;;;;;;2.47;1.55;;;16.60;94.00;;;;;;5029633;28;20029;-73
2021/08/09 04:54:20;;;;;;;4.22;1.92;;;16.60;94.00;;;;;;5030650;28;20086;-74
2021/08/09 04:56:46;;;;;;;9.25;1.67;;;16.70;94.10;;;;;;5031670;28;20024;-74
2021/08/09 04:59:11;;;;;;;6.57;1.60;;;16.60;94.10;;;;;;5030846;28;20120;-73
2021/08/09 05:01:37;;;;;;;5.78;2.13;;;16.60;94.00;;;;;;5030609;28;20029;-74
2021/08/09 05:04:05;;;;;;;5.82;1.67;;;16.70;94.10;;;;;;5030839;28;20425;-74
2021/08/09 05:06:34;;;;;;;5.25;1.95;;;16.70;94.00;;;;;;5030599;28;20037;-76
2021/08/09 05:09:00;;;;;;;3.92;1.70;;;16.70;94.00;;;;;;5029952;28;20036;-75
2021/08/09 05:11:25;;;;;;;10.88;2.47;;;16.70;94.00;;;;;;5030658;28;20108;-75
2021/08/09 05:13:51;;;;;;;3.88;1.73;;;16.70;94.30;;;;;;5029759;28;20407;-74
2021/08/09 05:16:16;;;;;;;3.17;1.40;;;16.70;94.20;;;;;;5030809;28;20030;-75
2021/08/09 05:18:42;;;;;;;4.75;1.70;;;16.90;94.20;;;;;;5030524;28;20332;-73
2021/08/09 05:21:07;;;;;;;4.63;1.63;;;16.80;94.20;;;;;;5031219;28;20056;-74
2021/08/09 05:23:33;;;;;;;4.63;1.73;;;16.80;94.20;;;;;;5030476;28;20049;-74
2021/08/09 05:25:59;;;;;;;5.72;1.67;;;16.90;94.40;;;;;;5029557;28;20033;-75
2021/08/09 05:28:24;;;;;;;2.67;1.40;;;16.90;94.20;;;;;;5029581;28;20520;-74
2021/08/09 05:30:50;;;;;;;7.47;1.48;;;16.90;94.40;;;;;;5029348;28;20061;-75
2021/08/09 05:33:15;;;;;;;6.38;1.80;;;16.80;94.40;;;;;;5030407;28;20029;-75
2021/08/09 05:35:43;;;;;;;3.40;1.50;;;17.00;94.30;;;;;;5030948;28;20030;-76
2021/08/09 05:38:10;;;;;;;5.13;1.70;;;16.90;94.30;;;;;;5034000;28;20108;-75
2021/08/09 05:40:37;;;;;;;8.97;1.77;;;16.90;94.20;;;;;;5034032;28;20117;-75
2021/08/09 05:43:02;;;;;;;4.22;1.80;;;17.00;94.30;;;;;;5032821;28;20344;-75
2021/08/09 05:45:29;;;;;;;4.00;1.63;;;16.90;94.40;;;;;;5033856;28;20447;-75
2021/08/09 05:47:54;;;;;;;5.35;1.63;;;16.90;94.40;;;;;;5034409;28;20040;-75
2021/08/09 05:50:20;;;;;;;4.15;1.58;;;16.90;94.40;;;;;;5034033;28;20033;-75
2021/08/09 05:52:45;;;;;;;6.80;1.75;;;17.00;94.30;;;;;;5054041;28;20072;-75
2021/08/09 05:55:11;;;;;;;4.22;1.60;;;17.10;94.20;;;;;;5054207;28;20569;-74
2021/08/09 05:57:37;;;;;;;6.60;1.63;;;17.00;94.10;;;;;;5053681;28;20478;-74
2021/08/09 06:00:04;;;;;;;7.25;1.33;;;17.10;94.30;;;;;;5053721;28;20029;-73
2021/08/09 06:02:29;;;;;;;5.60;1.50;;;17.00;94.10;;;;;;5053548;28;20037;-76
2021/08/09 06:04:55;;;;;;;2.58;1.52;;;17.00;94.10;;;;;;5052446;28;20029;-74
2021/08/09 06:07:21;;;;;;;3.53;1.20;;;17.00;94.10;;;;;;5052663;28;20628;-76
2021/08/09 06:09:46;;;;;;;12.88;2.40;;;17.00;94.10;;;;;;5053632;28;20510;-76
2021/08/09 06:12:14;;;;;;;5.60;1.50;;;17.00;94.20;;;;;;5052738;28;20025;-76
2021/08/09 06:14:39;;;;;;;2.65;1.40;;;17.10;94.10;;;;;;5053118;28;20502;-74
2021/08/09 06:17:07;;;;;;;8.13;1.58;;;17.10;94.00;;;;;;5053471;28;20116;-74
2021/08/09 06:19:34;;;;;;;4.03;1.55;;;17.10;94.00;;;;;;5053354;28;20025;-74
2021/08/09 06:22:00;;;;;;;4.43;1.60;;;17.10;94.10;;;;;;5052859;28;20037;-74
2021/08/09 06:24:25;;;;;;;8.25;1.92;;;17.10;94.10;;;;;;5051995;28;20025;-75
2021/08/09 06:26:51;;;;;;;9.35;1.70;;;17.10;94.10;;;;;;5053765;28;20378;-74
2021/08/09 06:29:18;;;;;;;2.03;1.27;;;17.20;94.10;;;;;;5051844;28;20359;-75
2021/08/09 06:31:43;;;;;;;5.25;1.65;;;17.30;94.10;;;;;;5052508;28;20378;-75
2021/08/09 06:34:09;;;;;;;5.00;2.47;;;17.20;93.80;;;;;;5052846;28;20041;-77
2021/08/09 06:36:34;;;;;;;6.97;3.17;;;17.30;93.90;;;;;;5052482;28;20108;-74
2021/08/09 06:39:00;;;;;;;7.15;2.63;;;17.30;93.80;;;;;;5053382;28;20378;-76
2021/08/09 06:41:26;;;;;;;7.30;2.88;;;17.30;93.70;;;;;;5052762;28;20040;-76
2021/08/09 06:43:51;;;;;;;5.55;3.00;;;17.40;93.70;;;;;;5052821;28;20086;-75
2021/08/09 06:46:17;;;;;;;5.40;1.50;;;17.40;93.70;;;;;;5051893;28;20025;-76
2021/08/09 06:48:44;;;;;;;4.18;1.60;;;17.50;93.70;;;;;;5050734;28;20471;-75
2021/08/09 06:51:10;;;;;;;3.22;1.58;;;17.50;93.60;;;;;;5052786;28;20458;-76
2021/08/09 06:53:36;;;;;;;1.60;1.10;;;17.50;93.80;;;;;;5052822;28;20114;-73
2021/08/09 06:56:01;;;;;;;3.30;1.60;;;17.50;93.60;;;;;;5051220;28;20088;-73
2021/08/09 06:58:27;;;;;;;3.50;1.40;;;17.50;93.70;;;;;;5051511;28;20033;-75
2021/08/09 07:00:52;;;;;;;7.32;1.45;;;17.60;93.60;;;;;;5051294;28;20043;-74
2021/08/09 07:03:18;;;;;;;4.85;1.40;;;17.70;93.60;;;;;;5052347;28;20052;-73
2021/08/09 07:05:46;;;;;;;3.13;1.67;;;17.80;93.50;;;;;;5052580;28;20455;-75
2021/08/09 07:08:13;;;;;;;4.75;1.60;;;17.80;93.40;;;;;;5052255;28;20033;-72
2021/08/09 07:10:40;;;;;;;4.88;1.50;;;17.80;93.40;;;;;;5052180;28;20041;-75
2021/08/09 07:13:06;;;;;;;4.20;1.20;;;17.90;93.40;;;;;;5052310;28;20028;-74
2021/08/09 07:15:32;;;;;;;8.80;3.50;;;17.90;93.30;;;;;;5051970;28;20423;-74
2021/08/09 07:17:57;;;;;;;7.18;2.38;;;17.90;93.20;;;;;;5052783;28;20127;-77
2021/08/09 07:20:23;;;;;;;7.18;1.38;;;17.90;93.30;;;;;;5049837;28;20039;-75
2021/08/09 07:22:49;;;;;;;7.28;1.83;;;17.90;93.20;;;;;;5051170;28;20356;-75
2021/08/09 07:25:20;;;;;;;4.25;1.70;;;18.00;93.30;;;;;;5052310;28;20166;-74
2021/08/09 07:27:51;;;;;;;6.45;1.83;;;18.10;93.10;;;;;;5051049;28;20036;-79
2021/08/09 07:30:29;;;;;;;5.78;1.50;;;18.20;93.10;;;;;;5051991;28;20055;-77
2021/08/09 07:32:55;;;;;;;5.40;1.63;;;18.30;93.10;;;;;;5052641;28;20028;-78
2021/08/09 07:35:28;;;;;;;11.50;4.30;;;18.40;93.00;;;;;;5051673;28;20033;-78
2021/08/09 07:37:53;;;;;;;6.32;2.25;;;18.50;92.60;;;;;;5049859;28;20111;-78
2021/08/09 07:40:20;;;;;;;4.88;1.60;;;18.70;92.50;;;;;;5032422;28;20172;-78
2021/08/09 07:42:45;;;;;;;9.30;1.58;;;18.80;92.00;;;;;;5031961;28;20030;-79
2021/08/09 07:45:11;;;;;;;2.53;1.40;;;19.00;91.90;;;;;;5032378;28;20036;-78
2021/08/09 07:47:37;;;;;;;3.05;1.55;;;19.10;91.10;;;;;;5032234;28;20037;-76
2021/08/09 07:50:03;;;;;;;4.63;1.48;;;19.30;90.80;;;;;;5031643;28;20366;-75
2021/08/09 07:52:29;;;;;;;7.45;1.48;;;19.40;90.40;;;;;;5030470;28;20045;-75
2021/08/09 07:54:55;;;;;;;3.67;1.15;;;19.60;90.10;;;;;;5031325;28;20467;-76
2021/08/09 07:57:21;;;;;;;4.47;1.38;;;19.80;90.10;;;;;;5031675;28;20033;-77
2021/08/09 07:59:47;;;;;;;4.38;1.38;;;20.00;90.10;;;;;;5031037;28;20025;-76
2021/08/09 08:02:13;;;;;;;6.93;1.60;;;20.10;88.80;;;;;;5020817;28;20048;-77
2021/08/09 08:04:42;;;;;;;2.65;1.30;;;20.20;88.40;;;;;;5031798;28;20030;-78
2021/08/09 08:07:08;;;;;;;7.47;1.67;;;20.40;88.30;;;;;;5033039;28;20372;-80
2021/08/09 08:09:34;;;;;;;6.75;1.20;;;20.40;87.50;;;;;;5031404;28;20116;-80
2021/08/09 08:12:01;;;;;;;2.65;1.08;;;20.40;87.40;;;;;;5031576;28;20037;-78
2021/08/09 08:14:27;;;;;;;6.63;1.70;;;20.30;87.40;;;;;;5030361;28;20060;-79
2021/08/09 08:16:52;;;;;;;2.58;1.20;;;20.30;87.60;;;;;;5031263;28;20670;-76
2021/08/09 08:19:18;;;;;;;6.60;1.75;;;20.30;87.70;;;;;;5015138;28;20034;-74
2021/08/09 08:21:44;;;;;;;4.95;1.40;;;20.30;88.10;;;;;;5030757;28;20044;-76
2021/08/09 08:24:10;;;;;;;2.85;1.35;;;20.30;88.40;;;;;;5030441;28;20050;-78
2021/08/09 08:26:35;;;;;;;7.32;1.63;;;20.40;88.90;;;;;;5031389;28;20217;-77
2021/08/09 08:29:01;;;;;;;6.03;1.20;;;20.30;88.30;;;;;;5020433;28;20527;-79
2021/08/09 08:31:27;;;;;;;4.35;1.23;;;20.30;88.30;;;;;;5029970;28;20040;-76
2021/08/09 08:33:52;;;;;;;4.10;1.50;;;20.30;88.10;;;;;;5031118;28;20026;-79
2021/08/09 08:36:18;;;;;;;3.40;1.50;;;20.10;87.90;;;;;;5031131;28;20022;-79
2021/08/09 08:38:43;;;;;;;6.40;1.30;;;20.20;88.40;;;;;;5030510;28;20021;-77
2021/08/09 08:41:19;;;;;;;8.10;1.83;;;20.30;87.90;;;;;;5029822;28;20086;-78
2021/08/09 08:43:45;;;;;;;7.47;1.33;;;20.30;86.90;;;;;;5030807;28;20048;-76
2021/08/09 08:46:10;;;;;;;3.55;1.05;;;20.30;87.10;;;;;;5030069;28;20037;-79
2021/08/09 08:48:37;;;;;;;5.60;1.50;;;20.30;86.40;;;;;;5030908;28;20116;-79
2021/08/09 08:51:04;;;;;;;5.18;1.38;;;20.30;86.50;;;;;;5031471;28;20422;-80
2021/08/09 08:53:35;;;;;;;5.95;1.58;;;20.30;86.40;;;;;;5029887;28;20064;-79
2021/08/09 08:56:04;;;;;;;5.00;1.65;;;20.20;86.20;;;;;;5030567;28;20467;-75
2021/08/09 08:58:30;;;;;;;4.75;1.23;;;20.20;85.90;;;;;;5030571;28;20052;-78
2021/08/09 09:00:55;;;;;;;5.07;1.30;;;20.20;87.30;;;;;;5029510;28;20041;-76
2021/08/09 09:03:24;;;;;;;2.72;1.08;;;20.20;86.60;;;;;;5029816;28;20033;-79
2021/08/09 09:06:04;;;;;;;7.15;1.27;;;20.30;86.60;;;;;;5030923;28;20087;-83
2021/08/09 09:08:46;;;;;;;6.18;1.42;;;20.30;86.50;;;;;;5031251;28;20064;-78
2021/08/09 09:11:22;;;;;;;1.48;0.98;;;20.30;86.10;;;;;;5031913;28;20030;-76
2021/08/09 09:13:55;;;;;;;25.48;17.27;;;20.40;86.30;;;;;;5035066;28;20037;-80
2021/08/09 09:16:20;;;;;;;10.68;4.63;;;20.40;86.40;;;;;;5033598;28;20037;-80
2021/08/09 09:18:56;;;;;;;6.07;1.75;;;20.30;85.00;;;;;;5034172;28;20051;-80
2021/08/09 09:21:29;;;;;;;5.63;1.33;;;20.40;85.70;;;;;;5034816;28;20025;-81
2021/08/09 09:24:20;;;;;;;4.03;1.38;;;20.40;85.40;;;;;;5034090;28;20416;-80
2021/08/09 09:26:53;;;;;;;3.83;1.02;;;20.40;85.40;;;;;;5033598;28;20033;-76
2021/08/09 09:29:19;;;;;;;7.20;2.05;;;20.40;84.80;;;;;;5034817;28;20103;-81
2021/08/09 09:31:47;;;;;;;4.65;1.40;;;20.40;84.20;;;;;;5034539;28;20464;-79
2021/08/09 09:34:18;;;;;;;5.35;1.58;;;20.30;84.60;;;;;;5033400;28;20034;-82
2021/08/09 09:36:49;;;;;;;7.72;1.38;;;20.30;85.00;;;;;;5034391;28;20041;-79
2021/08/09 09:39:30;;;;;;;7.40;1.73;;;20.30;85.20;;;;;;5034355;28;20021;-82
2021/08/09 09:41:58;;;;;;;5.90;1.67;;;20.40;85.20;;;;;;5035032;28;20107;-79
2021/08/09 09:44:25;;;;;;;3.88;1.42;;;20.40;85.20;;;;;;5033206;28;20030;-75
2021/08/09 09:46:50;;;;;;;4.03;1.50;;;20.30;85.10;;;;;;5034132;28;20041;-76
2021/08/09 09:49:33;;;;;;;4.30;1.05;;;20.30;85.20;;;;;;5033132;28;20033;-78
2021/08/09 09:51:59;;;;;;;4.07;1.20;;;20.20;85.10;;;;;;5034110;28;20041;-78
2021/08/09 09:54:26;;;;;;;4.13;1.30;;;20.20;85.10;;;;;;5033882;28;20052;-76
2021/08/09 09:56:56;;;;;;;8.52;1.70;;;20.20;85.70;;;;;;5034085;28;20374;-75
2021/08/09 09:59:26;;;;;;;4.65;1.60;;;20.10;85.60;;;;;;5032789;28;20042;-78
2021/08/09 10:01:52;;;;;;;4.97;1.60;;;20.10;85.90;;;;;;5032798;28;20044;-78
2021/08/09 10:04:18;;;;;;;23.42;14.23;;;20.20;85.60;;;;;;5034122;28;20395;-76
2021/08/09 10:06:46;;;;;;;8.88;4.88;;;20.20;86.30;;;;;;5034163;28;20036;-78
2021/08/09 10:09:14;;;;;;;4.97;1.85;;;20.20;86.60;;;;;;5033089;28;20029;-79
2021/08/09 10:11:43;;;;;;;4.28;1.50;;;20.10;86.80;;;;;;5034019;28;20038;-78
2021/08/09 10:14:13;;;;;;;4.13;1.50;;;20.10;87.00;;;;;;5033690;28;20026;-79
2021/08/09 10:16:40;;;;;;;6.43;1.15;;;20.10;87.00;;;;;;5033470;28;20227;-79
2021/08/09 10:19:07;;;;;;;4.57;1.30;;;20.20;87.30;;;;;;5034318;28;20104;-83
2021/08/09 10:21:34;;;;;;;4.57;1.80;;;20.20;87.20;;;;;;5034414;28;20033;-78
2021/08/09 10:24:00;;;;;;;6.43;1.80;;;20.20;87.30;;;;;;5032707;28;20270;-79
2021/08/09 10:26:47;;;;;;;4.35;1.58;;;20.30;87.50;;;;;;5033273;28;20075;-77
2021/08/09 10:29:13;;;;;;;6.47;1.40;;;20.20;87.00;;;;;;5033336;28;20081;-80
2021/08/09 10:31:41;;;;;;;6.30;1.55;;;20.30;87.30;;;;;;5033826;28;20120;-79
2021/08/09 10:34:09;;;;;;;3.97;1.50;;;20.30;87.50;;;;;;5032270;28;20108;-80
2021/08/09 10:37:09;;;;;;;8.10;1.70;;;20.30;87.50;;;;;;5033194;28;20060;-75
2021/08/09 10:40:06;;;;;;;9.18;1.80;;;20.30;87.40;;;;;;5025904;28;20046;-75
2021/08/09 10:42:57;;;;;;;6.07;1.83;;;20.30;87.80;;;;;;5011899;28;20025;-76
2021/08/09 10:45:45;;;;;;;3.85;1.38;;;20.30;87.90;;;;;;5021262;28;20025;-73
2021/08/09 10:48:12;;;;;;;6.43;1.70;;;20.30;88.30;;;;;;5032169;28;20132;-73
2021/08/09 10:50:41;;;;;;;6.33;1.67;;;20.40;88.60;;;;;;5032937;28;20112;-74
2021/08/09 10:53:33;;;;;;;5.50;1.67;;;20.40;88.80;;;;;;5033172;28;20105;-76
2021/08/09 10:56:00;;;;;;;2.50;1.17;;;20.50;88.50;;;;;;5032292;28;20072;-72
2021/08/09 10:58:41;;;;;;;3.10;1.50;;;20.40;88.30;;;;;;5032865;28;20033;-74
2021/08/09 11:01:07;;;;;;;7.53;1.77;;;20.40;88.20;;;;;;5032499;28;20099;-74
2021/08/09 11:03:33;;;;;;;56.50;34.95;;;20.50;88.40;;;;;;5032793;28;20025;-77
2021/08/09 11:05:58;;;;;;;16.35;8.15;;;20.50;88.10;;;;;;5032118;28;20112;-76
2021/08/09 11:08:24;;;;;;;8.30;1.80;;;20.50;88.20;;;;;;5032359;28;20033;-79
2021/08/09 11:11:05;;;;;;;6.63;1.42;;;20.60;88.10;;;;;;5031447;28;20033;-77
2021/08/09 11:13:53;;;;;;;7.53;2.00;;;20.60;88.20;;;;;;5032764;28;20021;-76
2021/08/09 11:16:31;;;;;;;4.13;1.50;;;20.80;88.30;;;;;;5032112;28;20037;-78
2021/08/09 11:18:57;;;;;;;9.40;4.28;;;20.90;88.50;;;;;;5032558;28;20045;-82
2021/08/09 11:21:24;;;;;;;5.07;2.50;;;21.00;88.30;;;;;;5032590;28;20025;-79
2021/08/09 11:23:50;;;;;;;5.63;1.67;;;21.20;88.00;;;;;;5032874;28;20045;-77
2021/08/09 11:26:25;;;;;;;10.15;1.50;;;21.20;87.40;;;;;;5032347;28;20057;-77
2021/08/09 11:29:05;;;;;;;5.82;1.70;;;21.30;88.10;;;;;;5030858;28;20052;-79
2021/08/09 11:31:51;;;;;;;2.08;1.38;;;21.30;87.80;;;;;;5031952;28;20048;-78
2021/08/09 11:34:17;;;;;;;5.85;2.50;;;21.30;86.80;;;;;;5036952;28;20044;-79
2021/08/09 11:36:42;;;;;;;7.10;2.28;;;21.30;86.60;;;;;;5051864;28;20455;-77
2021/08/09 11:39:08;;;;;;;7.18;1.40;;;21.20;86.40;;;;;;5051627;28;20029;-80
2021/08/09 11:41:35;;;;;;;5.20;1.42;;;21.30;86.40;;;;;;5052141;28;20048;-78
2021/08/09 11:44:05;;;;;;;4.03;1.27;;;21.40;86.60;;;;;;5051844;28;20041;-80
2021/08/09 11:46:32;;;;;;;4.07;1.40;;;21.60;86.40;;;;;;5051073;28;20025;-79
2021/08/09 11:48:58;;;;;;;4.95;1.27;;;21.70;86.50;;;;;;5051683;28;20033;-77
2021/08/09 11:51:29;;;;;;;3.03;1.40;;;21.90;86.70;;;;;;5051914;28;20096;-79
2021/08/09 11:53:56;;;;;;;7.63;1.38;;;22.00;85.60;;;;;;5051284;28;20061;-76
2021/08/09 11:56:24;;;;;;;2.83;1.20;;;22.10;84.20;;;;;;5050705;28;20423;-78
2021/08/09 11:58:50;;;;;;;3.88;2.00;;;22.20;83.90;;;;;;5052006;28;20137;-78
2021/08/09 12:01:21;;;;;;;4.82;1.35;;;22.10;83.80;;;;;;5051593;28;20037;-76
2021/08/09 12:04:21;;;;;;;6.03;2.30;;;22.20;83.60;;;;;;5050428;28;20037;-79
2021/08/09 12:06:58;;;;;;;1.95;1.05;;;22.20;83.30;;;;;;5039602;28;20040;-76
2021/08/09 12:09:38;;;;;;;6.28;1.65;;;22.20;83.60;;;;;;5051485;28;20031;-78
2021/08/09 12:12:07;;;;;;;2.58;1.63;;;22.10;83.20;;;;;;5051867;28;20025;-74
2021/08/09 12:14:33;;;;;;;3.13;1.55;;;22.10;83.30;;;;;;5051316;28;20394;-75
2021/08/09 12:17:20;;;;;;;4.30;1.77;;;22.00;83.50;;;;;;5050264;28;20025;-75
2021/08/09 12:19:48;;;;;;;9.40;1.90;;;21.90;84.50;;;;;;5050903;28;20121;-77
2021/08/09 12:22:14;;;;;;;;;;;21.90;88.90;;;;;;5051386;28;20045;-77
2021/08/09 12:24:42;;;;;;;6.03;1.50;;;21.80;89.20;;;;;;5051098;28;20259;-77
2021/08/09 12:27:21;;;;;;;3.55;1.48;;;21.70;90.10;;;;;;5051824;28;20043;-75
2021/08/09 12:30:10;;;;;;;3.60;1.30;;;21.70;89.80;;;;;;5050571;28;20076;-78
2021/08/09 12:32:38;;;;;;;5.35;1.75;;;21.80;90.30;;;;;;5052454;28;20102;-77
2021/08/09 12:35:06;;;;;;;3.75;1.52;;;21.90;91.50;;;;;;5051331;28;20119;-75
2021/08/09 12:37:33;;;;;;;7.28;1.92;;;22.00;91.10;;;;;;5050888;28;20035;-75
2021/08/09 12:40:18;;;;;;;5.05;1.73;;;22.00;91.40;;;;;;5050930;28;20043;-79
2021/08/09 12:43:04;;;;;;;3.17;1.48;;;21.90;91.80;;;;;;5050663;28;20029;-76
2021/08/09 12:45:30;;;;;;;5.25;1.35;;;21.80;91.40;;;;;;5050312;28;20047;-76
2021/08/09 12:47:55;;;;;;;4.57;1.55;;;21.70;90.80;;;;;;5050933;28;20319;-81
2021/08/09 12:50:21;;;;;;;4.32;1.52;;;21.50;91.10;;;;;;5049854;28;20505;-79
2021/08/09 12:52:47;;;;;;;2.70;1.55;;;21.50;91.10;;;;;;5050965;28;20040;-81
2021/08/09 12:55:12;;;;;;;3.53;1.30;;;21.40;91.20;;;;;;5050931;28;20526;-81